sensor_id;sensor_type;location;lat;lon;timestamp;P1;durP1;ratioP1;P2;durP2;ratioP2
5299;SDS011;70402;42.670;23.258;2023-06-14T00:01:52;9.93;;;6.67;;
5299;SDS011;70402;42.670;23.258;2023-06-14T00:04:18;8.93;;;7.13;;
5299;SDS011;70402;42.670;23.258;2023-06-14T00:06:45;11.57;;;6.87;;
5299;SDS011;70402;42.670;23.258;2023-06-14T00:09:12;13.00;;;6.27;;
5299;SDS011;70402;42.670;23.258;2023-06-14T00:11:41;9.30;;;6.17;;
5299;SDS011;70402;42.670;23.258;2023-06-14T00:14:07;10.53;;;6.10;;
5299;SDS011;70402;42.670;23.258;2023-06-14T00:16:33;11.20;;;6.17;;
5299;SDS011;70402;42.670;23.258;2023-06-14T00:19:01;10.97;;;6.30;;
5299;SDS011;70402;42.670;23.258;2023-06-14T00:21:30;7.33;;;6.40;;
5299;SDS011;70402;42.670;23.258;2023-06-14T00:23:57;11.30;;;6.40;;
5299;SDS011;70402;42.670;23.258;2023-06-14T00:26:23;11.00;;;6.63;;
5299;SDS011;70402;42.670;23.258;2023-06-14T00:28:51;9.40;;;6.23;;
5299;SDS011;70402;42.670;23.258;2023-06-14T00:31:18;9.43;;;6.60;;
5299;SDS011;70402;42.670;23.258;2023-06-14T00:33:44;8.97;;;6.40;;
5299;SDS011;70402;42.670;23.258;2023-06-14T00:36:10;14.50;;;8.40;;
5299;SDS011;70402;42.670;23.258;2023-06-14T00:38:36;29.50;;;11.23;;
5299;SDS011;70402;42.670;23.258;2023-06-14T00:41:02;29.97;;;13.07;;
5299;SDS011;70402;42.670;23.258;2023-06-14T00:43:28;15.70;;;9.10;;
5299;SDS011;70402;42.670;23.258;2023-06-14T00:45:54;11.33;;;6.07;;
5299;SDS011;70402;42.670;23.258;2023-06-14T00:48:20;9.40;;;7.40;;
5299;SDS011;70402;42.670;23.258;2023-06-14T00:50:47;11.63;;;5.93;;
5299;SDS011;70402;42.670;23.258;2023-06-14T00:53:15;9.67;;;6.60;;
5299;SDS011;70402;42.670;23.258;2023-06-14T00:55:42;11.17;;;6.93;;
5299;SDS011;70402;42.670;23.258;2023-06-14T00:58:09;7.67;;;6.07;;
5299;SDS011;70402;42.670;23.258;2023-06-14T01:00:35;9.80;;;6.97;;
5299;SDS011;70402;42.670;23.258;2023-06-14T01:03:01;10.77;;;6.70;;
5299;SDS011;70402;42.670;23.258;2023-06-14T01:05:28;13.03;;;6.57;;
5299;SDS011;70402;42.670;23.258;2023-06-14T01:13:37;12.57;;;6.97;;
5299;SDS011;70402;42.670;23.258;2023-06-14T01:16:05;13.00;;;6.53;;
5299;SDS011;70402;42.670;23.258;2023-06-14T01:18:32;11.37;;;7.03;;
5299;SDS011;70402;42.670;23.258;2023-06-14T01:20:58;8.60;;;6.17;;
5299;SDS011;70402;42.670;23.258;2023-06-14T01:23:24;10.20;;;6.47;;
5299;SDS011;70402;42.670;23.258;2023-06-14T01:25:58;11.00;;;6.87;;
5299;SDS011;70402;42.670;23.258;2023-06-14T01:28:25;13.10;;;6.17;;
5299;SDS011;70402;42.670;23.258;2023-06-14T01:30:58;12.00;;;6.23;;
5299;SDS011;70402;42.670;23.258;2023-06-14T01:33:29;10.07;;;5.97;;
5299;SDS011;70402;42.670;23.258;2023-06-14T01:35:56;9.90;;;6.63;;
5299;SDS011;70402;42.670;23.258;2023-06-14T01:38:23;7.97;;;5.67;;
5299;SDS011;70402;42.670;23.258;2023-06-14T01:40:50;7.50;;;5.40;;
5299;SDS011;70402;42.670;23.258;2023-06-14T01:43:18;14.80;;;9.50;;
5299;SDS011;70402;42.670;23.258;2023-06-14T01:45:45;18.87;;;9.07;;
5299;SDS011;70402;42.670;23.258;2023-06-14T01:48:14;13.97;;;8.30;;
5299;SDS011;70402;42.670;23.258;2023-06-14T01:50:40;10.40;;;7.17;;
5299;SDS011;70402;42.670;23.258;2023-06-14T01:53:09;9.00;;;6.73;;
5299;SDS011;70402;42.670;23.258;2023-06-14T01:55:35;7.73;;;5.00;;
5299;SDS011;70402;42.670;23.258;2023-06-14T01:58:08;7.50;;;5.93;;
5299;SDS011;70402;42.670;23.258;2023-06-14T02:00:35;5.97;;;4.73;;
5299;SDS011;70402;42.670;23.258;2023-06-14T02:03:01;6.20;;;4.43;;
5299;SDS011;70402;42.670;23.258;2023-06-14T02:05:29;7.20;;;4.30;;
5299;SDS011;70402;42.670;23.258;2023-06-14T02:07:55;4.03;;;3.37;;
5299;SDS011;70402;42.670;23.258;2023-06-14T02:10:21;5.33;;;4.30;;
5299;SDS011;70402;42.670;23.258;2023-06-14T02:12:47;5.33;;;4.30;;
5299;SDS011;70402;42.670;23.258;2023-06-14T02:15:13;4.77;;;3.90;;
5299;SDS011;70402;42.670;23.258;2023-06-14T02:17:45;6.47;;;4.33;;
5299;SDS011;70402;42.670;23.258;2023-06-14T02:20:14;3.97;;;3.50;;
5299;SDS011;70402;42.670;23.258;2023-06-14T02:22:40;4.90;;;3.80;;
5299;SDS011;70402;42.670;23.258;2023-06-14T02:25:07;4.57;;;3.70;;
5299;SDS011;70402;42.670;23.258;2023-06-14T02:27:33;3.87;;;3.40;;
5299;SDS011;70402;42.670;23.258;2023-06-14T02:30:00;3.50;;;3.03;;
5299;SDS011;70402;42.670;23.258;2023-06-14T02:32:26;5.37;;;3.87;;
5299;SDS011;70402;42.670;23.258;2023-06-14T02:34:52;5.13;;;4.27;;
5299;SDS011;70402;42.670;23.258;2023-06-14T02:37:20;4.20;;;3.00;;
5299;SDS011;70402;42.670;23.258;2023-06-14T02:39:46;4.50;;;3.77;;
5299;SDS011;70402;42.670;23.258;2023-06-14T02:42:12;4.13;;;3.30;;
5299;SDS011;70402;42.670;23.258;2023-06-14T02:44:37;6.10;;;3.93;;
5299;SDS011;70402;42.670;23.258;2023-06-14T02:47:04;4.20;;;3.60;;
5299;SDS011;70402;42.670;23.258;2023-06-14T02:49:30;4.83;;;3.83;;
5299;SDS011;70402;42.670;23.258;2023-06-14T02:51:56;4.07;;;3.40;;
5299;SDS011;70402;42.670;23.258;2023-06-14T02:54:22;5.70;;;3.60;;
5299;SDS011;70402;42.670;23.258;2023-06-14T02:56:48;6.73;;;3.63;;
5299;SDS011;70402;42.670;23.258;2023-06-14T02:59:14;5.53;;;4.13;;
5299;SDS011;70402;42.670;23.258;2023-06-14T03:01:40;5.23;;;4.60;;
5299;SDS011;70402;42.670;23.258;2023-06-14T03:04:07;5.00;;;3.90;;
5299;SDS011;70402;42.670;23.258;2023-06-14T03:06:33;6.10;;;4.10;;
5299;SDS011;70402;42.670;23.258;2023-06-14T03:09:00;5.80;;;4.07;;
5299;SDS011;70402;42.670;23.258;2023-06-14T03:11:29;4.80;;;3.80;;
5299;SDS011;70402;42.670;23.258;2023-06-14T03:13:56;5.27;;;3.97;;
5299;SDS011;70402;42.670;23.258;2023-06-14T03:16:22;5.13;;;4.23;;
5299;SDS011;70402;42.670;23.258;2023-06-14T03:18:50;5.20;;;4.13;;
5299;SDS011;70402;42.670;23.258;2023-06-14T03:21:16;4.70;;;4.20;;
5299;SDS011;70402;42.670;23.258;2023-06-14T03:23:45;4.50;;;3.60;;
5299;SDS011;70402;42.670;23.258;2023-06-14T03:26:12;4.13;;;3.60;;
5299;SDS011;70402;42.670;23.258;2023-06-14T03:28:39;6.17;;;4.17;;
5299;SDS011;70402;42.670;23.258;2023-06-14T03:31:06;4.93;;;3.40;;
5299;SDS011;70402;42.670;23.258;2023-06-14T03:33:34;7.40;;;4.07;;
5299;SDS011;70402;42.670;23.258;2023-06-14T03:36:01;4.00;;;3.60;;
5299;SDS011;70402;42.670;23.258;2023-06-14T03:38:27;4.50;;;3.87;;
5299;SDS011;70402;42.670;23.258;2023-06-14T03:40:53;3.83;;;3.20;;
5299;SDS011;70402;42.670;23.258;2023-06-14T03:43:19;3.60;;;3.10;;
5299;SDS011;70402;42.670;23.258;2023-06-14T03:45:45;4.27;;;3.30;;
5299;SDS011;70402;42.670;23.258;2023-06-14T03:48:11;7.27;;;3.20;;
5299;SDS011;70402;42.670;23.258;2023-06-14T03:50:37;6.03;;;3.73;;
5299;SDS011;70402;42.670;23.258;2023-06-14T03:53:03;4.43;;;3.60;;
5299;SDS011;70402;42.670;23.258;2023-06-14T03:55:30;4.93;;;4.10;;
5299;SDS011;70402;42.670;23.258;2023-06-14T03:57:58;5.03;;;3.40;;
5299;SDS011;70402;42.670;23.258;2023-06-14T04:00:25;5.77;;;3.60;;
5299;SDS011;70402;42.670;23.258;2023-06-14T04:02:51;4.43;;;2.97;;
5299;SDS011;70402;42.670;23.258;2023-06-14T04:05:18;6.20;;;3.43;;
5299;SDS011;70402;42.670;23.258;2023-06-14T04:07:44;3.53;;;2.80;;
5299;SDS011;70402;42.670;23.258;2023-06-14T04:10:11;6.50;;;3.90;;
5299;SDS011;70402;42.670;23.258;2023-06-14T04:12:38;4.90;;;3.80;;
5299;SDS011;70402;42.670;23.258;2023-06-14T04:15:04;4.23;;;3.53;;
5299;SDS011;70402;42.670;23.258;2023-06-14T04:17:31;4.30;;;3.73;;
5299;SDS011;70402;42.670;23.258;2023-06-14T04:20:01;6.57;;;3.70;;
5299;SDS011;70402;42.670;23.258;2023-06-14T04:22:29;3.90;;;3.30;;
5299;SDS011;70402;42.670;23.258;2023-06-14T04:24:56;4.33;;;3.30;;
5299;SDS011;70402;42.670;23.258;2023-06-14T04:27:23;4.20;;;3.40;;
5299;SDS011;70402;42.670;23.258;2023-06-14T04:29:51;5.90;;;3.80;;
5299;SDS011;70402;42.670;23.258;2023-06-14T04:32:27;10.40;;;4.00;;
5299;SDS011;70402;42.670;23.258;2023-06-14T04:34:58;9.17;;;5.40;;
5299;SDS011;70402;42.670;23.258;2023-06-14T04:37:27;5.30;;;3.90;;
5299;SDS011;70402;42.670;23.258;2023-06-14T04:39:54;11.30;;;4.57;;
5299;SDS011;70402;42.670;23.258;2023-06-14T04:42:21;5.20;;;3.60;;
5299;SDS011;70402;42.670;23.258;2023-06-14T04:44:50;6.63;;;4.50;;
5299;SDS011;70402;42.670;23.258;2023-06-14T04:47:20;6.73;;;4.10;;
5299;SDS011;70402;42.670;23.258;2023-06-14T04:49:46;5.27;;;4.20;;
5299;SDS011;70402;42.670;23.258;2023-06-14T04:52:12;7.23;;;4.70;;
5299;SDS011;70402;42.670;23.258;2023-06-14T04:54:39;7.37;;;4.30;;
5299;SDS011;70402;42.670;23.258;2023-06-14T04:57:10;5.40;;;4.60;;
5299;SDS011;70402;42.670;23.258;2023-06-14T04:59:42;5.10;;;3.97;;
5299;SDS011;70402;42.670;23.258;2023-06-14T05:02:09;6.60;;;4.73;;
5299;SDS011;70402;42.670;23.258;2023-06-14T05:04:36;5.73;;;4.37;;
5299;SDS011;70402;42.670;23.258;2023-06-14T05:07:06;6.07;;;4.97;;
5299;SDS011;70402;42.670;23.258;2023-06-14T05:09:33;7.17;;;5.47;;
5299;SDS011;70402;42.670;23.258;2023-06-14T05:11:59;8.23;;;4.93;;
5299;SDS011;70402;42.670;23.258;2023-06-14T05:14:25;8.47;;;4.47;;
5299;SDS011;70402;42.670;23.258;2023-06-14T05:16:52;7.67;;;4.67;;
5299;SDS011;70402;42.670;23.258;2023-06-14T05:19:18;5.67;;;5.00;;
5299;SDS011;70402;42.670;23.258;2023-06-14T05:21:47;8.80;;;6.00;;
5299;SDS011;70402;42.670;23.258;2023-06-14T05:24:13;10.90;;;6.10;;
5299;SDS011;70402;42.670;23.258;2023-06-14T05:26:40;9.10;;;5.47;;
5299;SDS011;70402;42.670;23.258;2023-06-14T05:29:06;6.97;;;5.40;;
5299;SDS011;70402;42.670;23.258;2023-06-14T05:31:32;6.70;;;5.43;;
5299;SDS011;70402;42.670;23.258;2023-06-14T05:33:58;8.50;;;4.97;;
5299;SDS011;70402;42.670;23.258;2023-06-14T05:36:24;10.50;;;5.50;;
5299;SDS011;70402;42.670;23.258;2023-06-14T05:38:53;6.90;;;5.33;;
5299;SDS011;70402;42.670;23.258;2023-06-14T05:41:28;8.20;;;6.33;;
5299;SDS011;70402;42.670;23.258;2023-06-14T05:43:55;5.87;;;5.03;;
5299;SDS011;70402;42.670;23.258;2023-06-14T05:46:21;7.07;;;5.47;;
5299;SDS011;70402;42.670;23.258;2023-06-14T05:48:50;7.80;;;5.93;;
5299;SDS011;70402;42.670;23.258;2023-06-14T05:51:16;7.00;;;5.33;;
5299;SDS011;70402;42.670;23.258;2023-06-14T05:53:47;8.20;;;6.47;;
5299;SDS011;70402;42.670;23.258;2023-06-14T05:56:13;8.10;;;6.27;;
5299;SDS011;70402;42.670;23.258;2023-06-14T05:58:40;6.80;;;5.63;;
5299;SDS011;70402;42.670;23.258;2023-06-14T06:01:06;7.90;;;5.53;;
5299;SDS011;70402;42.670;23.258;2023-06-14T06:03:32;8.57;;;6.10;;
5299;SDS011;70402;42.670;23.258;2023-06-14T06:06:02;14.40;;;5.70;;
5299;SDS011;70402;42.670;23.258;2023-06-14T06:08:28;8.63;;;5.77;;
5299;SDS011;70402;42.670;23.258;2023-06-14T06:10:55;7.67;;;5.63;;
5299;SDS011;70402;42.670;23.258;2023-06-14T06:13:21;8.23;;;5.67;;
5299;SDS011;70402;42.670;23.258;2023-06-14T06:15:48;9.23;;;6.23;;
5299;SDS011;70402;42.670;23.258;2023-06-14T06:18:14;6.53;;;4.03;;
5299;SDS011;70402;42.670;23.258;2023-06-14T06:20:40;7.50;;;5.07;;
5299;SDS011;70402;42.670;23.258;2023-06-14T06:23:06;4.77;;;4.27;;
5299;SDS011;70402;42.670;23.258;2023-06-14T06:25:35;5.50;;;4.70;;
5299;SDS011;70402;42.670;23.258;2023-06-14T06:28:01;6.93;;;5.20;;
5299;SDS011;70402;42.670;23.258;2023-06-14T06:30:27;5.00;;;4.17;;
5299;SDS011;70402;42.670;23.258;2023-06-14T06:32:53;4.93;;;4.43;;
5299;SDS011;70402;42.670;23.258;2023-06-14T06:35:20;5.50;;;4.60;;
5299;SDS011;70402;42.670;23.258;2023-06-14T06:37:46;5.50;;;4.37;;
5299;SDS011;70402;42.670;23.258;2023-06-14T06:40:12;6.00;;;4.77;;
5299;SDS011;70402;42.670;23.258;2023-06-14T06:42:38;5.10;;;4.30;;
5299;SDS011;70402;42.670;23.258;2023-06-14T06:45:04;6.67;;;4.90;;
5299;SDS011;70402;42.670;23.258;2023-06-14T06:47:31;4.67;;;4.07;;
5299;SDS011;70402;42.670;23.258;2023-06-14T06:49:57;5.93;;;4.60;;
5299;SDS011;70402;42.670;23.258;2023-06-14T06:52:23;5.70;;;4.53;;
5299;SDS011;70402;42.670;23.258;2023-06-14T06:54:49;7.27;;;5.67;;
5299;SDS011;70402;42.670;23.258;2023-06-14T06:57:20;7.03;;;6.00;;
5299;SDS011;70402;42.670;23.258;2023-06-14T06:59:48;8.50;;;5.50;;
5299;SDS011;70402;42.670;23.258;2023-06-14T07:02:15;8.53;;;6.20;;
5299;SDS011;70402;42.670;23.258;2023-06-14T07:04:41;8.10;;;5.80;;
5299;SDS011;70402;42.670;23.258;2023-06-14T07:07:07;7.33;;;5.50;;
5299;SDS011;70402;42.670;23.258;2023-06-14T07:09:35;7.50;;;5.70;;
5299;SDS011;70402;42.670;23.258;2023-06-14T07:12:01;8.50;;;6.70;;
5299;SDS011;70402;42.670;23.258;2023-06-14T07:14:27;8.10;;;5.10;;
5299;SDS011;70402;42.670;23.258;2023-06-14T07:16:54;12.73;;;6.30;;
5299;SDS011;70402;42.670;23.258;2023-06-14T07:19:20;8.07;;;6.00;;
5299;SDS011;70402;42.670;23.258;2023-06-14T07:21:46;9.33;;;7.30;;
5299;SDS011;70402;42.670;23.258;2023-06-14T07:24:12;10.90;;;6.87;;
5299;SDS011;70402;42.670;23.258;2023-06-14T07:26:38;8.20;;;6.10;;
5299;SDS011;70402;42.670;23.258;2023-06-14T07:29:04;8.47;;;6.40;;
5299;SDS011;70402;42.670;23.258;2023-06-14T07:31:30;6.40;;;5.13;;
5299;SDS011;70402;42.670;23.258;2023-06-14T07:33:56;10.77;;;6.70;;
5299;SDS011;70402;42.670;23.258;2023-06-14T07:36:22;8.47;;;6.10;;
5299;SDS011;70402;42.670;23.258;2023-06-14T07:38:48;9.07;;;6.60;;
5299;SDS011;70402;42.670;23.258;2023-06-14T07:41:14;9.90;;;6.83;;
5299;SDS011;70402;42.670;23.258;2023-06-14T07:43:41;7.97;;;6.40;;
5299;SDS011;70402;42.670;23.258;2023-06-14T07:46:06;8.33;;;6.40;;
5299;SDS011;70402;42.670;23.258;2023-06-14T07:48:34;10.60;;;6.43;;
5299;SDS011;70402;42.670;23.258;2023-06-14T07:51:00;7.10;;;5.87;;
5299;SDS011;70402;42.670;23.258;2023-06-14T07:53:26;10.40;;;7.70;;
5299;SDS011;70402;42.670;23.258;2023-06-14T07:55:52;11.77;;;6.93;;
5299;SDS011;70402;42.670;23.258;2023-06-14T07:58:18;11.20;;;7.57;;
5299;SDS011;70402;42.670;23.258;2023-06-14T08:00:44;9.30;;;7.43;;
5299;SDS011;70402;42.670;23.258;2023-06-14T08:03:11;12.00;;;6.90;;
5299;SDS011;70402;42.670;23.258;2023-06-14T08:05:37;8.00;;;6.67;;
5299;SDS011;70402;42.670;23.258;2023-06-14T08:08:03;11.43;;;7.63;;
5299;SDS011;70402;42.670;23.258;2023-06-14T08:10:29;9.03;;;7.47;;
5299;SDS011;70402;42.670;23.258;2023-06-14T08:12:55;10.80;;;7.40;;
5299;SDS011;70402;42.670;23.258;2023-06-14T08:15:21;11.43;;;7.70;;
5299;SDS011;70402;42.670;23.258;2023-06-14T08:17:47;10.70;;;7.47;;
5299;SDS011;70402;42.670;23.258;2023-06-14T08:20:13;13.20;;;8.83;;
5299;SDS011;70402;42.670;23.258;2023-06-14T08:22:42;9.50;;;7.50;;
5299;SDS011;70402;42.670;23.258;2023-06-14T08:25:08;12.43;;;8.07;;
5299;SDS011;70402;42.670;23.258;2023-06-14T08:27:35;10.97;;;8.37;;
5299;SDS011;70402;42.670;23.258;2023-06-14T08:30:01;12.97;;;8.43;;
5299;SDS011;70402;42.670;23.258;2023-06-14T08:32:28;12.10;;;7.70;;
5299;SDS011;70402;42.670;23.258;2023-06-14T08:34:54;10.90;;;7.07;;
5299;SDS011;70402;42.670;23.258;2023-06-14T08:37:20;13.97;;;8.10;;
5299;SDS011;70402;42.670;23.258;2023-06-14T08:39:46;12.77;;;8.13;;
5299;SDS011;70402;42.670;23.258;2023-06-14T08:42:12;10.70;;;7.83;;
5299;SDS011;70402;42.670;23.258;2023-06-14T08:44:39;12.10;;;8.20;;
5299;SDS011;70402;42.670;23.258;2023-06-14T08:47:06;13.40;;;7.90;;
5299;SDS011;70402;42.670;23.258;2023-06-14T08:49:34;8.93;;;7.03;;
5299;SDS011;70402;42.670;23.258;2023-06-14T08:52:01;8.97;;;7.50;;
5299;SDS011;70402;42.670;23.258;2023-06-14T08:54:29;8.67;;;6.77;;
5299;SDS011;70402;42.670;23.258;2023-06-14T08:56:59;14.63;;;8.80;;
5299;SDS011;70402;42.670;23.258;2023-06-14T08:59:28;11.80;;;7.40;;
5299;SDS011;70402;42.670;23.258;2023-06-14T09:01:56;11.73;;;7.93;;
5299;SDS011;70402;42.670;23.258;2023-06-14T09:04:22;10.10;;;7.40;;
5299;SDS011;70402;42.670;23.258;2023-06-14T09:06:53;14.03;;;9.03;;
5299;SDS011;70402;42.670;23.258;2023-06-14T09:09:20;10.83;;;7.63;;
5299;SDS011;70402;42.670;23.258;2023-06-14T09:11:51;12.47;;;8.00;;
5299;SDS011;70402;42.670;23.258;2023-06-14T09:14:18;14.27;;;7.17;;
5299;SDS011;70402;42.670;23.258;2023-06-14T09:16:44;10.73;;;8.13;;
5299;SDS011;70402;42.670;23.258;2023-06-14T09:19:25;10.17;;;7.13;;
5299;SDS011;70402;42.670;23.258;2023-06-14T09:21:52;7.33;;;6.50;;
5299;SDS011;70402;42.670;23.258;2023-06-14T09:24:18;10.20;;;7.70;;
5299;SDS011;70402;42.670;23.258;2023-06-14T09:26:47;11.47;;;8.30;;
5299;SDS011;70402;42.670;23.258;2023-06-14T09:29:16;10.30;;;8.07;;
5299;SDS011;70402;42.670;23.258;2023-06-14T09:31:42;10.43;;;7.73;;
5299;SDS011;70402;42.670;23.258;2023-06-14T09:34:10;9.73;;;7.27;;
5299;SDS011;70402;42.670;23.258;2023-06-14T09:36:36;10.60;;;7.00;;
5299;SDS011;70402;42.670;23.258;2023-06-14T09:39:06;10.13;;;7.77;;
5299;SDS011;70402;42.670;23.258;2023-06-14T09:41:34;11.43;;;7.20;;
5299;SDS011;70402;42.670;23.258;2023-06-14T09:44:05;7.97;;;6.53;;
5299;SDS011;70402;42.670;23.258;2023-06-14T09:46:33;9.07;;;7.30;;
5299;SDS011;70402;42.670;23.258;2023-06-14T09:49:00;17.93;;;9.23;;
5299;SDS011;70402;42.670;23.258;2023-06-14T09:51:27;11.50;;;5.80;;
5299;SDS011;70402;42.670;23.258;2023-06-14T09:53:59;8.13;;;6.90;;
5299;SDS011;70402;42.670;23.258;2023-06-14T09:56:30;9.10;;;7.50;;
5299;SDS011;70402;42.670;23.258;2023-06-14T09:59:00;14.20;;;7.73;;
5299;SDS011;70402;42.670;23.258;2023-06-14T10:01:30;10.20;;;7.70;;
5299;SDS011;70402;42.670;23.258;2023-06-14T10:04:03;9.90;;;7.80;;
5299;SDS011;70402;42.670;23.258;2023-06-14T10:06:30;11.00;;;6.87;;
5299;SDS011;70402;42.670;23.258;2023-06-14T10:08:58;10.07;;;8.20;;
5299;SDS011;70402;42.670;23.258;2023-06-14T10:11:25;9.57;;;7.83;;
5299;SDS011;70402;42.670;23.258;2023-06-14T10:13:53;10.47;;;7.90;;
5299;SDS011;70402;42.670;23.258;2023-06-14T10:16:23;10.90;;;7.57;;
5299;SDS011;70402;42.670;23.258;2023-06-14T10:18:59;10.00;;;8.70;;
5299;SDS011;70402;42.670;23.258;2023-06-14T10:21:32;9.23;;;7.30;;
5299;SDS011;70402;42.670;23.258;2023-06-14T10:24:19;19.83;;;8.03;;
5299;SDS011;70402;42.670;23.258;2023-06-14T10:26:52;9.47;;;7.20;;
5299;SDS011;70402;42.670;23.258;2023-06-14T10:29:19;11.70;;;8.03;;
5299;SDS011;70402;42.670;23.258;2023-06-14T10:31:49;12.53;;;8.47;;
5299;SDS011;70402;42.670;23.258;2023-06-14T10:34:23;9.27;;;7.00;;
5299;SDS011;70402;42.670;23.258;2023-06-14T10:39:51;9.87;;;7.97;;
5299;SDS011;70402;42.670;23.258;2023-06-14T10:42:18;8.43;;;6.27;;
5299;SDS011;70402;42.670;23.258;2023-06-14T10:44:51;9.60;;;7.53;;
5299;SDS011;70402;42.670;23.258;2023-06-14T10:52:33;9.87;;;7.43;;
5299;SDS011;70402;42.670;23.258;2023-06-14T10:55:14;12.97;;;7.97;;
5299;SDS011;70402;42.670;23.258;2023-06-14T10:57:42;16.83;;;6.63;;
5299;SDS011;70402;42.670;23.258;2023-06-14T11:00:14;8.87;;;6.73;;
5299;SDS011;70402;42.670;23.258;2023-06-14T11:03:01;8.33;;;7.37;;
5299;SDS011;70402;42.670;23.258;2023-06-14T11:06:10;8.30;;;7.23;;
5299;SDS011;70402;42.670;23.258;2023-06-14T11:08:40;9.20;;;7.13;;
5299;SDS011;70402;42.670;23.258;2023-06-14T11:11:38;11.80;;;7.20;;
5299;SDS011;70402;42.670;23.258;2023-06-14T11:14:07;11.30;;;8.63;;
5299;SDS011;70402;42.670;23.258;2023-06-14T11:16:33;9.03;;;7.13;;
5299;SDS011;70402;42.670;23.258;2023-06-14T11:19:02;9.53;;;7.30;;
5299;SDS011;70402;42.670;23.258;2023-06-14T11:21:29;9.50;;;7.30;;
5299;SDS011;70402;42.670;23.258;2023-06-14T11:23:58;10.87;;;6.77;;
5299;SDS011;70402;42.670;23.258;2023-06-14T11:26:33;10.10;;;7.83;;
5299;SDS011;70402;42.670;23.258;2023-06-14T11:29:00;10.03;;;6.80;;
5299;SDS011;70402;42.670;23.258;2023-06-14T11:31:27;12.17;;;8.03;;
5299;SDS011;70402;42.670;23.258;2023-06-14T11:33:54;8.63;;;6.97;;
5299;SDS011;70402;42.670;23.258;2023-06-14T11:36:22;9.90;;;6.80;;
5299;SDS011;70402;42.670;23.258;2023-06-14T11:38:49;7.37;;;6.47;;
5299;SDS011;70402;42.670;23.258;2023-06-14T11:41:15;10.33;;;7.33;;
5299;SDS011;70402;42.670;23.258;2023-06-14T11:43:41;8.50;;;6.47;;
5299;SDS011;70402;42.670;23.258;2023-06-14T11:46:13;12.63;;;5.73;;
5299;SDS011;70402;42.670;23.258;2023-06-14T11:48:43;7.07;;;5.60;;
5299;SDS011;70402;42.670;23.258;2023-06-14T11:51:10;8.33;;;6.50;;
5299;SDS011;70402;42.670;23.258;2023-06-14T11:53:36;7.60;;;6.33;;
5299;SDS011;70402;42.670;23.258;2023-06-14T11:56:02;6.93;;;5.47;;
5299;SDS011;70402;42.670;23.258;2023-06-14T11:58:29;7.83;;;5.27;;
5299;SDS011;70402;42.670;23.258;2023-06-14T12:00:55;7.50;;;5.67;;
5299;SDS011;70402;42.670;23.258;2023-06-14T12:03:24;7.93;;;5.80;;
5299;SDS011;70402;42.670;23.258;2023-06-14T12:06:04;8.87;;;6.00;;
5299;SDS011;70402;42.670;23.258;2023-06-14T12:08:37;5.83;;;4.97;;
5299;SDS011;70402;42.670;23.258;2023-06-14T12:11:11;6.20;;;5.30;;
5299;SDS011;70402;42.670;23.258;2023-06-14T12:13:39;5.63;;;5.03;;
5299;SDS011;70402;42.670;23.258;2023-06-14T12:16:09;7.60;;;5.40;;
5299;SDS011;70402;42.670;23.258;2023-06-14T12:18:35;7.33;;;4.90;;
5299;SDS011;70402;42.670;23.258;2023-06-14T12:21:04;6.93;;;4.57;;
5299;SDS011;70402;42.670;23.258;2023-06-14T12:23:41;6.50;;;4.90;;
5299;SDS011;70402;42.670;23.258;2023-06-14T12:26:18;5.17;;;4.57;;
5299;SDS011;70402;42.670;23.258;2023-06-14T12:28:44;5.43;;;4.67;;
5299;SDS011;70402;42.670;23.258;2023-06-14T12:31:12;6.10;;;4.40;;
5299;SDS011;70402;42.670;23.258;2023-06-14T12:33:39;5.50;;;4.10;;
5299;SDS011;70402;42.670;23.258;2023-06-14T12:36:09;5.00;;;4.50;;
5299;SDS011;70402;42.670;23.258;2023-06-14T12:38:36;5.50;;;4.20;;
5299;SDS011;70402;42.670;23.258;2023-06-14T12:41:02;5.10;;;4.37;;
5299;SDS011;70402;42.670;23.258;2023-06-14T12:43:29;4.30;;;3.90;;
5299;SDS011;70402;42.670;23.258;2023-06-14T12:45:55;4.90;;;3.87;;
5299;SDS011;70402;42.670;23.258;2023-06-14T12:48:21;5.30;;;4.80;;
5299;SDS011;70402;42.670;23.258;2023-06-14T12:50:47;5.63;;;3.27;;
5299;SDS011;70402;42.670;23.258;2023-06-14T12:53:13;4.10;;;3.70;;
5299;SDS011;70402;42.670;23.258;2023-06-14T12:55:40;5.17;;;3.70;;
5299;SDS011;70402;42.670;23.258;2023-06-14T12:58:06;3.60;;;3.30;;
5299;SDS011;70402;42.670;23.258;2023-06-14T13:00:32;5.00;;;4.50;;
5299;SDS011;70402;42.670;23.258;2023-06-14T13:02:58;5.37;;;4.60;;
5299;SDS011;70402;42.670;23.258;2023-06-14T13:05:24;4.87;;;4.37;;
5299;SDS011;70402;42.670;23.258;2023-06-14T13:07:50;4.43;;;3.97;;
5299;SDS011;70402;42.670;23.258;2023-06-14T13:10:16;5.60;;;4.67;;
5299;SDS011;70402;42.670;23.258;2023-06-14T13:12:43;5.80;;;4.73;;
5299;SDS011;70402;42.670;23.258;2023-06-14T13:15:09;6.37;;;4.67;;
5299;SDS011;70402;42.670;23.258;2023-06-14T13:17:35;7.27;;;4.43;;
5299;SDS011;70402;42.670;23.258;2023-06-14T13:20:09;6.73;;;5.13;;
5299;SDS011;70402;42.670;23.258;2023-06-14T13:22:36;12.27;;;5.30;;
5299;SDS011;70402;42.670;23.258;2023-06-14T13:25:02;5.80;;;3.90;;
5299;SDS011;70402;42.670;23.258;2023-06-14T13:27:28;6.23;;;4.10;;
5299;SDS011;70402;42.670;23.258;2023-06-14T13:29:54;7.47;;;5.30;;
5299;SDS011;70402;42.670;23.258;2023-06-14T13:32:21;6.00;;;4.73;;
5299;SDS011;70402;42.670;23.258;2023-06-14T13:34:47;6.17;;;4.60;;
5299;SDS011;70402;42.670;23.258;2023-06-14T13:37:13;5.67;;;5.00;;
5299;SDS011;70402;42.670;23.258;2023-06-14T13:39:39;5.37;;;4.57;;
5299;SDS011;70402;42.670;23.258;2023-06-14T13:42:05;6.40;;;5.20;;
5299;SDS011;70402;42.670;23.258;2023-06-14T13:44:31;7.00;;;6.00;;
5299;SDS011;70402;42.670;23.258;2023-06-14T13:46:57;7.73;;;5.20;;
5299;SDS011;70402;42.670;23.258;2023-06-14T13:49:23;14.17;;;5.30;;
5299;SDS011;70402;42.670;23.258;2023-06-14T13:51:49;9.00;;;5.40;;
5299;SDS011;70402;42.670;23.258;2023-06-14T13:54:16;6.27;;;4.87;;
5299;SDS011;70402;42.670;23.258;2023-06-14T13:56:45;8.50;;;5.87;;
5299;SDS011;70402;42.670;23.258;2023-06-14T13:59:11;6.70;;;4.90;;
5299;SDS011;70402;42.670;23.258;2023-06-14T14:01:37;9.93;;;5.60;;
5299;SDS011;70402;42.670;23.258;2023-06-14T14:04:04;8.50;;;5.00;;
5299;SDS011;70402;42.670;23.258;2023-06-14T14:06:30;11.50;;;5.77;;
5299;SDS011;70402;42.670;23.258;2023-06-14T14:08:56;6.47;;;4.83;;
5299;SDS011;70402;42.670;23.258;2023-06-14T14:11:22;8.70;;;6.03;;
5299;SDS011;70402;42.670;23.258;2023-06-14T14:13:48;7.60;;;5.60;;
5299;SDS011;70402;42.670;23.258;2023-06-14T14:16:14;8.10;;;6.00;;
5299;SDS011;70402;42.670;23.258;2023-06-14T14:18:41;6.27;;;4.90;;
5299;SDS011;70402;42.670;23.258;2023-06-14T14:21:06;8.10;;;5.63;;
5299;SDS011;70402;42.670;23.258;2023-06-14T14:23:33;12.00;;;5.63;;
5299;SDS011;70402;42.670;23.258;2023-06-14T14:25:58;7.60;;;5.53;;
5299;SDS011;70402;42.670;23.258;2023-06-14T14:28:30;7.80;;;5.90;;
5299;SDS011;70402;42.670;23.258;2023-06-14T14:30:57;8.00;;;6.20;;
5299;SDS011;70402;42.670;23.258;2023-06-14T14:33:23;8.70;;;6.83;;
5299;SDS011;70402;42.670;23.258;2023-06-14T14:35:49;8.27;;;6.27;;
5299;SDS011;70402;42.670;23.258;2023-06-14T14:38:15;16.20;;;6.30;;
5299;SDS011;70402;42.670;23.258;2023-06-14T14:40:42;12.60;;;7.73;;
5299;SDS011;70402;42.670;23.258;2023-06-14T14:43:09;14.13;;;8.67;;
5299;SDS011;70402;42.670;23.258;2023-06-14T14:45:35;10.23;;;7.00;;
5299;SDS011;70402;42.670;23.258;2023-06-14T14:48:01;8.40;;;6.63;;
5299;SDS011;70402;42.670;23.258;2023-06-14T14:50:28;8.50;;;6.13;;
5299;SDS011;70402;42.670;23.258;2023-06-14T14:52:54;6.90;;;4.60;;
5299;SDS011;70402;42.670;23.258;2023-06-14T14:55:21;6.27;;;4.27;;
5299;SDS011;70402;42.670;23.258;2023-06-14T14:57:51;6.40;;;4.10;;
5299;SDS011;70402;42.670;23.258;2023-06-14T15:00:17;6.90;;;5.53;;